sensor_id;sensor_type;location;lat;lon;timestamp;temperature;humidity
15328;DHT22;7764;51.430;6.840;2024-03-02T00:00:44;9.30;99.90
15328;DHT22;7764;51.430;6.840;2024-03-02T00:03:15;9.30;99.90
15328;DHT22;7764;51.430;6.840;2024-03-02T00:05:42;9.30;99.90
15328;DHT22;7764;51.430;6.840;2024-03-02T00:08:09;9.30;99.90
15328;DHT22;7764;51.430;6.840;2024-03-02T00:10:37;9.30;99.90
15328;DHT22;7764;51.430;6.840;2024-03-02T00:13:07;9.40;99.90
15328;DHT22;7764;51.430;6.840;2024-03-02T00:15:41;9.30;99.90
15328;DHT22;7764;51.430;6.840;2024-03-02T00:18:11;9.40;99.90
15328;DHT22;7764;51.430;6.840;2024-03-02T00:20:38;9.40;99.90
15328;DHT22;7764;51.430;6.840;2024-03-02T00:23:06;9.40;99.90
15328;DHT22;7764;51.430;6.840;2024-03-02T00:25:38;9.40;99.90
15328;DHT22;7764;51.430;6.840;2024-03-02T00:28:14;9.40;99.90
15328;DHT22;7764;51.430;6.840;2024-03-02T00:30:55;9.40;99.90
15328;DHT22;7764;51.430;6.840;2024-03-02T00:33:26;9.40;99.90
15328;DHT22;7764;51.430;6.840;2024-03-02T00:35:53;9.40;99.90
15328;DHT22;7764;51.430;6.840;2024-03-02T00:38:20;9.40;99.90
15328;DHT22;7764;51.430;6.840;2024-03-02T00:40:48;9.50;99.90
15328;DHT22;7764;51.430;6.840;2024-03-02T00:43:41;9.60;99.90
15328;DHT22;7764;51.430;6.840;2024-03-02T00:46:08;9.60;99.90
15328;DHT22;7764;51.430;6.840;2024-03-02T00:48:35;9.60;99.90
15328;DHT22;7764;51.430;6.840;2024-03-02T00:51:03;9.70;99.90
15328;DHT22;7764;51.430;6.840;2024-03-02T00:53:31;9.70;99.90
15328;DHT22;7764;51.430;6.840;2024-03-02T00:55:58;9.70;99.90
15328;DHT22;7764;51.430;6.840;2024-03-02T00:58:25;9.80;99.90
15328;DHT22;7764;51.430;6.840;2024-03-02T01:00:53;9.80;99.90
15328;DHT22;7764;51.430;6.840;2024-03-02T01:03:21;9.80;99.90
15328;DHT22;7764;51.430;6.840;2024-03-02T01:05:48;9.90;99.90
15328;DHT22;7764;51.430;6.840;2024-03-02T01:08:14;9.90;99.90
15328;DHT22;7764;51.430;6.840;2024-03-02T01:10:41;9.90;99.90
15328;DHT22;7764;51.430;6.840;2024-03-02T01:13:08;9.90;99.90
15328;DHT22;7764;51.430;6.840;2024-03-02T01:15:35;9.90;99.90
15328;DHT22;7764;51.430;6.840;2024-03-02T01:18:04;10.00;99.90
15328;DHT22;7764;51.430;6.840;2024-03-02T01:20:31;9.90;99.90
15328;DHT22;7764;51.430;6.840;2024-03-02T01:22:58;9.90;99.90
15328;DHT22;7764;51.430;6.840;2024-03-02T01:25:25;10.00;99.90
15328;DHT22;7764;51.430;6.840;2024-03-02T01:27:52;10.00;99.90
15328;DHT22;7764;51.430;6.840;2024-03-02T01:30:19;10.00;99.90
15328;DHT22;7764;51.430;6.840;2024-03-02T01:32:47;9.90;99.90
15328;DHT22;7764;51.430;6.840;2024-03-02T01:35:15;10.00;99.90
15328;DHT22;7764;51.430;6.840;2024-03-02T01:37:42;9.90;99.90
15328;DHT22;7764;51.430;6.840;2024-03-02T01:40:10;9.90;99.90
15328;DHT22;7764;51.430;6.840;2024-03-02T01:42:37;9.90;99.90
15328;DHT22;7764;51.430;6.840;2024-03-02T01:45:05;9.80;99.90
15328;DHT22;7764;51.430;6.840;2024-03-02T01:47:32;9.80;99.90
15328;DHT22;7764;51.430;6.840;2024-03-02T01:50:00;9.80;99.90
15328;DHT22;7764;51.430;6.840;2024-03-02T01:52:29;9.70;99.90
15328;DHT22;7764;51.430;6.840;2024-03-02T01:54:56;9.70;99.90
15328;DHT22;7764;51.430;6.840;2024-03-02T01:57:23;9.70;99.90
15328;DHT22;7764;51.430;6.840;2024-03-02T01:59:49;9.70;99.90
15328;DHT22;7764;51.430;6.840;2024-03-02T02:02:17;9.70;99.90
15328;DHT22;7764;51.430;6.840;2024-03-02T02:04:44;9.70;99.90
15328;DHT22;7764;51.430;6.840;2024-03-02T02:07:11;9.70;99.90
15328;DHT22;7764;51.430;6.840;2024-03-02T02:09:41;9.70;99.90
15328;DHT22;7764;51.430;6.840;2024-03-02T02:12:08;9.70;99.90
15328;DHT22;7764;51.430;6.840;2024-03-02T02:14:35;9.80;99.90
15328;DHT22;7764;51.430;6.840;2024-03-02T02:17:03;9.80;99.90
15328;DHT22;7764;51.430;6.840;2024-03-02T02:19:30;9.80;99.90
15328;DHT22;7764;51.430;6.840;2024-03-02T02:21:58;9.80;99.90
15328;DHT22;7764;51.430;6.840;2024-03-02T02:24:25;9.80;99.90
15328;DHT22;7764;51.430;6.840;2024-03-02T02:26:52;9.90;99.90
15328;DHT22;7764;51.430;6.840;2024-03-02T02:29:18;9.90;99.90
15328;DHT22;7764;51.430;6.840;2024-03-02T02:31:45;9.90;99.90
15328;DHT22;7764;51.430;6.840;2024-03-02T02:34:14;9.90;99.90
15328;DHT22;7764;51.430;6.840;2024-03-02T02:36:43;9.90;99.90
15328;DHT22;7764;51.430;6.840;2024-03-02T02:39:15;9.90;99.90
15328;DHT22;7764;51.430;6.840;2024-03-02T02:41:42;9.90;99.90
15328;DHT22;7764;51.430;6.840;2024-03-02T02:44:09;9.90;99.90
15328;DHT22;7764;51.430;6.840;2024-03-02T02:46:38;10.00;99.90
15328;DHT22;7764;51.430;6.840;2024-03-02T02:49:05;10.00;99.90
15328;DHT22;7764;51.430;6.840;2024-03-02T02:51:32;10.00;99.90
15328;DHT22;7764;51.430;6.840;2024-03-02T02:54:02;10.00;99.90
15328;DHT22;7764;51.430;6.840;2024-03-02T02:56:30;10.00;99.90
15328;DHT22;7764;51.430;6.840;2024-03-02T02:58:57;10.00;99.90
15328;DHT22;7764;51.430;6.840;2024-03-02T03:01:24;10.00;99.90
15328;DHT22;7764;51.430;6.840;2024-03-02T03:03:51;10.00;99.90
15328;DHT22;7764;51.430;6.840;2024-03-02T03:06:18;10.00;99.90
15328;DHT22;7764;51.430;6.840;2024-03-02T03:08:45;10.00;99.90
15328;DHT22;7764;51.430;6.840;2024-03-02T03:11:12;10.00;99.90
15328;DHT22;7764;51.430;6.840;2024-03-02T03:13:41;10.00;99.90
15328;DHT22;7764;51.430;6.840;2024-03-02T03:16:08;10.00;99.90
15328;DHT22;7764;51.430;6.840;2024-03-02T03:18:35;9.90;99.90
15328;DHT22;7764;51.430;6.840;2024-03-02T03:21:02;9.90;99.90
15328;DHT22;7764;51.430;6.840;2024-03-02T03:23:29;9.90;99.90
15328;DHT22;7764;51.430;6.840;2024-03-02T03:25:56;9.90;99.90
15328;DHT22;7764;51.430;6.840;2024-03-02T03:28:23;9.90;99.90
15328;DHT22;7764;51.430;6.840;2024-03-02T03:30:54;9.90;99.90
15328;DHT22;7764;51.430;6.840;2024-03-02T03:33:20;9.90;99.90
15328;DHT22;7764;51.430;6.840;2024-03-02T03:35:47;9.90;99.90
15328;DHT22;7764;51.430;6.840;2024-03-02T03:38:14;9.90;99.90
15328;DHT22;7764;51.430;6.840;2024-03-02T03:40:41;9.90;99.90
15328;DHT22;7764;51.430;6.840;2024-03-02T03:43:08;9.90;99.90
15328;DHT22;7764;51.430;6.840;2024-03-02T03:45:34;9.90;99.90
15328;DHT22;7764;51.430;6.840;2024-03-02T03:48:04;9.90;99.90
15328;DHT22;7764;51.430;6.840;2024-03-02T03:50:31;9.90;99.90
15328;DHT22;7764;51.430;6.840;2024-03-02T03:52:58;9.90;99.90
15328;DHT22;7764;51.430;6.840;2024-03-02T03:55:25;9.90;99.90
15328;DHT22;7764;51.430;6.840;2024-03-02T03:57:51;9.90;99.90
15328;DHT22;7764;51.430;6.840;2024-03-02T04:00:18;9.90;99.90
15328;DHT22;7764;51.430;6.840;2024-03-02T04:02:45;9.90;99.90
15328;DHT22;7764;51.430;6.840;2024-03-02T04:05:14;9.80;99.90
15328;DHT22;7764;51.430;6.840;2024-03-02T04:07:41;9.70;99.90
15328;DHT22;7764;51.430;6.840;2024-03-02T04:10:09;9.70;99.90
15328;DHT22;7764;51.430;6.840;2024-03-02T04:12:37;9.60;99.90
15328;DHT22;7764;51.430;6.840;2024-03-02T04:15:05;9.60;99.90
15328;DHT22;7764;51.430;6.840;2024-03-02T04:17:33;9.50;99.90
15328;DHT22;7764;51.430;6.840;2024-03-02T04:20:01;9.50;99.90
15328;DHT22;7764;51.430;6.840;2024-03-02T04:22:33;9.40;99.90
15328;DHT22;7764;51.430;6.840;2024-03-02T04:25:01;9.30;99.90
15328;DHT22;7764;51.430;6.840;2024-03-02T04:27:30;9.30;99.90
15328;DHT22;7764;51.430;6.840;2024-03-02T04:29:58;9.30;99.90
15328;DHT22;7764;51.430;6.840;2024-03-02T04:32:26;9.20;99.90
15328;DHT22;7764;51.430;6.840;2024-03-02T04:34:53;9.20;99.90
15328;DHT22;7764;51.430;6.840;2024-03-02T04:37:20;9.10;99.90
15328;DHT22;7764;51.430;6.840;2024-03-02T04:39:48;9.10;99.90
15328;DHT22;7764;51.430;6.840;2024-03-02T04:42:15;9.00;99.90
15328;DHT22;7764;51.430;6.840;2024-03-02T04:44:42;9.00;99.90
15328;DHT22;7764;51.430;6.840;2024-03-02T04:47:09;8.90;99.90
15328;DHT22;7764;51.430;6.840;2024-03-02T04:49:36;8.90;99.90
15328;DHT22;7764;51.430;6.840;2024-03-02T04:52:03;9.00;99.90
15328;DHT22;7764;51.430;6.840;2024-03-02T04:54:30;8.90;99.90
15328;DHT22;7764;51.430;6.840;2024-03-02T04:56:58;8.90;99.90
15328;DHT22;7764;51.430;6.840;2024-03-02T04:59:26;8.90;99.90
15328;DHT22;7764;51.430;6.840;2024-03-02T05:01:53;9.00;99.90
15328;DHT22;7764;51.430;6.840;2024-03-02T05:04:20;8.90;99.90
15328;DHT22;7764;51.430;6.840;2024-03-02T05:06:46;8.90;99.90
15328;DHT22;7764;51.430;6.840;2024-03-02T05:09:18;8.90;99.90
15328;DHT22;7764;51.430;6.840;2024-03-02T05:11:44;8.90;99.90
15328;DHT22;7764;51.430;6.840;2024-03-02T05:14:38;8.80;99.90
15328;DHT22;7764;51.430;6.840;2024-03-02T05:17:05;8.80;99.90
15328;DHT22;7764;51.430;6.840;2024-03-02T05:19:32;8.80;99.90
15328;DHT22;7764;51.430;6.840;2024-03-02T05:21:59;8.70;99.90
15328;DHT22;7764;51.430;6.840;2024-03-02T05:24:26;8.70;99.90
15328;DHT22;7764;51.430;6.840;2024-03-02T05:26:54;8.60;99.90
15328;DHT22;7764;51.430;6.840;2024-03-02T05:29:21;8.60;99.90
15328;DHT22;7764;51.430;6.840;2024-03-02T05:31:52;8.60;99.90
15328;DHT22;7764;51.430;6.840;2024-03-02T05:34:19;8.60;99.90
15328;DHT22;7764;51.430;6.840;2024-03-02T05:36:46;8.50;99.90
15328;DHT22;7764;51.430;6.840;2024-03-02T05:39:14;8.50;99.90
15328;DHT22;7764;51.430;6.840;2024-03-02T05:41:41;8.50;99.90
15328;DHT22;7764;51.430;6.840;2024-03-02T05:44:10;8.50;99.90
15328;DHT22;7764;51.430;6.840;2024-03-02T05:46:38;8.50;99.90
15328;DHT22;7764;51.430;6.840;2024-03-02T05:49:06;8.40;99.90
15328;DHT22;7764;51.430;6.840;2024-03-02T05:51:33;8.40;99.90
15328;DHT22;7764;51.430;6.840;2024-03-02T05:54:00;8.40;99.90
15328;DHT22;7764;51.430;6.840;2024-03-02T05:56:27;8.40;99.90
15328;DHT22;7764;51.430;6.840;2024-03-02T05:58:54;8.40;99.90
15328;DHT22;7764;51.430;6.840;2024-03-02T06:01:34;8.40;99.90
15328;DHT22;7764;51.430;6.840;2024-03-02T06:04:01;8.40;99.90
15328;DHT22;7764;51.430;6.840;2024-03-02T06:06:31;8.30;99.90
15328;DHT22;7764;51.430;6.840;2024-03-02T06:08:59;8.30;99.90
15328;DHT22;7764;51.430;6.840;2024-03-02T06:11:26;8.30;99.90
15328;DHT22;7764;51.430;6.840;2024-03-02T06:13:53;8.30;99.90
15328;DHT22;7764;51.430;6.840;2024-03-02T06:16:20;8.30;99.90
15328;DHT22;7764;51.430;6.840;2024-03-02T06:18:47;8.30;99.90
15328;DHT22;7764;51.430;6.840;2024-03-02T06:21:14;8.30;99.90
15328;DHT22;7764;51.430;6.840;2024-03-02T06:23:42;8.30;99.90
15328;DHT22;7764;51.430;6.840;2024-03-02T06:26:10;8.30;99.90
15328;DHT22;7764;51.430;6.840;2024-03-02T06:28:38;8.20;99.90
15328;DHT22;7764;51.430;6.840;2024-03-02T06:31:05;8.30;99.90
15328;DHT22;7764;51.430;6.840;2024-03-02T06:33:32;8.30;99.90
15328;DHT22;7764;51.430;6.840;2024-03-02T06:35:58;8.30;99.90
15328;DHT22;7764;51.430;6.840;2024-03-02T06:38:26;8.40;99.90
15328;DHT22;7764;51.430;6.840;2024-03-02T06:40:54;8.40;99.90
15328;DHT22;7764;51.430;6.840;2024-03-02T06:43:21;8.40;99.90
15328;DHT22;7764;51.430;6.840;2024-03-02T06:45:49;8.40;99.90
15328;DHT22;7764;51.430;6.840;2024-03-02T06:48:16;8.40;99.90
15328;DHT22;7764;51.430;6.840;2024-03-02T06:50:45;8.50;99.90
15328;DHT22;7764;51.430;6.840;2024-03-02T06:53:13;8.60;99.90
15328;DHT22;7764;51.430;6.840;2024-03-02T06:55:43;8.80;99.90
15328;DHT22;7764;51.430;6.840;2024-03-02T06:58:11;8.90;99.90
15328;DHT22;7764;51.430;6.840;2024-03-02T07:00:38;9.00;99.90
15328;DHT22;7764;51.430;6.840;2024-03-02T07:03:05;9.20;99.90
15328;DHT22;7764;51.430;6.840;2024-03-02T07:05:32;9.20;99.90
15328;DHT22;7764;51.430;6.840;2024-03-02T07:07:59;9.40;99.90
15328;DHT22;7764;51.430;6.840;2024-03-02T07:10:27;9.50;99.90
15328;DHT22;7764;51.430;6.840;2024-03-02T07:12:54;9.60;99.90
15328;DHT22;7764;51.430;6.840;2024-03-02T07:15:22;9.70;99.90
15328;DHT22;7764;51.430;6.840;2024-03-02T07:18:08;9.50;99.90
15328;DHT22;7764;51.430;6.840;2024-03-02T07:20:35;9.50;99.90
15328;DHT22;7764;51.430;6.840;2024-03-02T07:23:04;9.40;99.90
15328;DHT22;7764;51.430;6.840;2024-03-02T07:25:32;9.40;99.90
15328;DHT22;7764;51.430;6.840;2024-03-02T07:27:59;9.30;99.90
15328;DHT22;7764;51.430;6.840;2024-03-02T07:30:28;9.30;99.90
15328;DHT22;7764;51.430;6.840;2024-03-02T07:32:55;9.30;99.90
15328;DHT22;7764;51.430;6.840;2024-03-02T07:35:22;9.30;99.90
15328;DHT22;7764;51.430;6.840;2024-03-02T07:37:52;9.30;99.90
15328;DHT22;7764;51.430;6.840;2024-03-02T07:40:19;9.30;99.90
15328;DHT22;7764;51.430;6.840;2024-03-02T07:42:46;9.60;99.90
15328;DHT22;7764;51.430;6.840;2024-03-02T07:45:13;9.80;99.90
15328;DHT22;7764;51.430;6.840;2024-03-02T07:47:42;9.90;99.90
15328;DHT22;7764;51.430;6.840;2024-03-02T07:50:10;10.10;99.90
15328;DHT22;7764;51.430;6.840;2024-03-02T07:52:37;10.20;99.90
15328;DHT22;7764;51.430;6.840;2024-03-02T07:55:04;10.40;99.90
15328;DHT22;7764;51.430;6.840;2024-03-02T07:57:31;10.50;99.90
15328;DHT22;7764;51.430;6.840;2024-03-02T07:59:58;10.60;99.90
15328;DHT22;7764;51.430;6.840;2024-03-02T08:02:26;10.60;99.90
15328;DHT22;7764;51.430;6.840;2024-03-02T08:04:54;10.80;99.90
15328;DHT22;7764;51.430;6.840;2024-03-02T08:07:21;10.90;99.90
15328;DHT22;7764;51.430;6.840;2024-03-02T08:09:47;10.90;99.90
15328;DHT22;7764;51.430;6.840;2024-03-02T08:12:14;10.90;99.90
15328;DHT22;7764;51.430;6.840;2024-03-02T08:14:41;11.00;99.90
15328;DHT22;7764;51.430;6.840;2024-03-02T08:17:08;11.10;99.90
15328;DHT22;7764;51.430;6.840;2024-03-02T08:19:37;11.10;99.90
15328;DHT22;7764;51.430;6.840;2024-03-02T08:22:05;11.30;99.90
15328;DHT22;7764;51.430;6.840;2024-03-02T08:24:32;11.40;99.90
15328;DHT22;7764;51.430;6.840;2024-03-02T08:27:00;11.50;99.90
15328;DHT22;7764;51.430;6.840;2024-03-02T08:29:27;11.60;99.90
15328;DHT22;7764;51.430;6.840;2024-03-02T08:31:54;11.70;99.90
15328;DHT22;7764;51.430;6.840;2024-03-02T08:34:21;11.80;99.90
15328;DHT22;7764;51.430;6.840;2024-03-02T08:36:48;11.80;99.90
15328;DHT22;7764;51.430;6.840;2024-03-02T08:39:16;11.80;99.90
15328;DHT22;7764;51.430;6.840;2024-03-02T08:41:45;11.70;99.90
15328;DHT22;7764;51.430;6.840;2024-03-02T08:44:12;11.80;99.90
15328;DHT22;7764;51.430;6.840;2024-03-02T08:46:39;11.70;99.90
15328;DHT22;7764;51.430;6.840;2024-03-02T08:49:06;11.70;99.90
15328;DHT22;7764;51.430;6.840;2024-03-02T08:51:33;11.70;99.90
15328;DHT22;7764;51.430;6.840;2024-03-02T08:54:00;11.70;99.90
15328;DHT22;7764;51.430;6.840;2024-03-02T08:56:29;11.70;99.90
15328;DHT22;7764;51.430;6.840;2024-03-02T08:58:56;11.70;99.90
15328;DHT22;7764;51.430;6.840;2024-03-02T09:01:23;11.70;99.90
15328;DHT22;7764;51.430;6.840;2024-03-02T09:03:50;11.80;99.90
15328;DHT22;7764;51.430;6.840;2024-03-02T09:06:17;11.90;99.90
15328;DHT22;7764;51.430;6.840;2024-03-02T09:08:45;11.90;99.90
15328;DHT22;7764;51.430;6.840;2024-03-02T09:11:13;12.00;99.90
15328;DHT22;7764;51.430;6.840;2024-03-02T09:13:42;12.00;99.90
15328;DHT22;7764;51.430;6.840;2024-03-02T09:16:09;12.00;99.90
15328;DHT22;7764;51.430;6.840;2024-03-02T09:18:37;12.10;99.90
15328;DHT22;7764;51.430;6.840;2024-03-02T09:21:04;12.10;99.90
15328;DHT22;7764;51.430;6.840;2024-03-02T09:23:32;12.10;99.90
15328;DHT22;7764;51.430;6.840;2024-03-02T09:25:59;12.20;99.90
15328;DHT22;7764;51.430;6.840;2024-03-02T09:28:26;12.20;99.90
15328;DHT22;7764;51.430;6.840;2024-03-02T09:30:55;12.20;99.90
15328;DHT22;7764;51.430;6.840;2024-03-02T09:33:22;12.10;99.90
15328;DHT22;7764;51.430;6.840;2024-03-02T09:35:48;12.10;99.90
15328;DHT22;7764;51.430;6.840;2024-03-02T09:38:15;12.20;99.90
15328;DHT22;7764;51.430;6.840;2024-03-02T09:40:42;12.30;99.90
15328;DHT22;7764;51.430;6.840;2024-03-02T09:43:10;12.20;99.90
15328;DHT22;7764;51.430;6.840;2024-03-02T09:45:37;12.40;99.90
15328;DHT22;7764;51.430;6.840;2024-03-02T09:48:06;12.50;99.90
15328;DHT22;7764;51.430;6.840;2024-03-02T09:50:33;12.50;99.90
15328;DHT22;7764;51.430;6.840;2024-03-02T09:53:00;12.50;99.90
15328;DHT22;7764;51.430;6.840;2024-03-02T09:55:27;12.40;99.90
15328;DHT22;7764;51.430;6.840;2024-03-02T09:57:54;12.40;99.90
15328;DHT22;7764;51.430;6.840;2024-03-02T10:00:21;12.60;99.90
15328;DHT22;7764;51.430;6.840;2024-03-02T10:02:48;12.80;99.90
15328;DHT22;7764;51.430;6.840;2024-03-02T10:05:25;12.80;99.90
15328;DHT22;7764;51.430;6.840;2024-03-02T10:07:59;12.70;99.90
15328;DHT22;7764;51.430;6.840;2024-03-02T10:10:34;12.80;99.90
15328;DHT22;7764;51.430;6.840;2024-03-02T10:13:06;12.60;99.90
15328;DHT22;7764;51.430;6.840;2024-03-02T10:15:34;12.70;99.90
15328;DHT22;7764;51.430;6.840;2024-03-02T10:18:03;12.80;99.90
15328;DHT22;7764;51.430;6.840;2024-03-02T10:20:31;13.00;99.90
15328;DHT22;7764;51.430;6.840;2024-03-02T10:23:10;12.80;99.90
15328;DHT22;7764;51.430;6.840;2024-03-02T10:25:38;12.80;99.90
15328;DHT22;7764;51.430;6.840;2024-03-02T10:28:05;12.80;99.90
15328;DHT22;7764;51.430;6.840;2024-03-02T10:30:32;12.60;99.90
15328;DHT22;7764;51.430;6.840;2024-03-02T10:33:00;12.70;99.90
15328;DHT22;7764;51.430;6.840;2024-03-02T10:35:29;12.70;99.90
15328;DHT22;7764;51.430;6.840;2024-03-02T10:37:58;12.70;99.90
15328;DHT22;7764;51.430;6.840;2024-03-02T10:40:26;12.90;99.90
15328;DHT22;7764;51.430;6.840;2024-03-02T10:42:53;13.00;99.90
15328;DHT22;7764;51.430;6.840;2024-03-02T10:45:20;13.00;99.90
15328;DHT22;7764;51.430;6.840;2024-03-02T10:47:49;13.10;99.90
15328;DHT22;7764;51.430;6.840;2024-03-02T10:50:17;13.20;99.90
15328;DHT22;7764;51.430;6.840;2024-03-02T10:52:44;13.20;99.90
15328;DHT22;7764;51.430;6.840;2024-03-02T10:55:13;13.40;99.90
15328;DHT22;7764;51.430;6.840;2024-03-02T10:57:50;13.50;99.90
15328;DHT22;7764;51.430;6.840;2024-03-02T11:00:19;13.30;99.90
15328;DHT22;7764;51.430;6.840;2024-03-02T11:02:51;13.30;99.90
15328;DHT22;7764;51.430;6.840;2024-03-02T11:05:26;13.40;99.90
15328;DHT22;7764;51.430;6.840;2024-03-02T11:07:57;13.30;99.90
15328;DHT22;7764;51.430;6.840;2024-03-02T11:10:33;13.40;99.90
15328;DHT22;7764;51.430;6.840;2024-03-02T11:13:02;13.30;99.90
15328;DHT22;7764;51.430;6.840;2024-03-02T11:15:32;13.40;99.90
15328;DHT22;7764;51.430;6.840;2024-03-02T11:18:00;13.40;99.90
15328;DHT22;7764;51.430;6.840;2024-03-02T11:20:31;13.50;99.90
15328;DHT22;7764;51.430;6.840;2024-03-02T11:23:06;13.60;99.90
15328;DHT22;7764;51.430;6.840;2024-03-02T11:25:38;13.60;99.90
15328;DHT22;7764;51.430;6.840;2024-03-02T11:28:07;13.50;99.90
15328;DHT22;7764;51.430;6.840;2024-03-02T11:30:52;13.50;99.90
15328;DHT22;7764;51.430;6.840;2024-03-02T11:33:25;13.50;99.90
15328;DHT22;7764;51.430;6.840;2024-03-02T11:35:56;13.60;99.90
15328;DHT22;7764;51.430;6.840;2024-03-02T11:38:33;13.60;99.90
15328;DHT22;7764;51.430;6.840;2024-03-02T11:41:09;13.50;99.90
15328;DHT22;7764;51.430;6.840;2024-03-02T11:43:42;13.60;99.90
15328;DHT22;7764;51.430;6.840;2024-03-02T11:46:15;13.60;99.90
15328;DHT22;7764;51.430;6.840;2024-03-02T11:48:44;13.60;99.90
15328;DHT22;7764;51.430;6.840;2024-03-02T11:51:16;13.50;99.90
15328;DHT22;7764;51.430;6.840;2024-03-02T11:53:51;13.60;99.90
15328;DHT22;7764;51.430;6.840;2024-03-02T11:56:34;13.60;99.90
15328;DHT22;7764;51.430;6.840;2024-03-02T11:59:03;13.50;99.90
15328;DHT22;7764;51.430;6.840;2024-03-02T12:01:34;13.60;99.90
15328;DHT22;7764;51.430;6.840;2024-03-02T12:04:02;13.70;99.90
15328;DHT22;7764;51.430;6.840;2024-03-02T12:06:35;13.70;99.90
15328;DHT22;7764;51.430;6.840;2024-03-02T12:09:06;13.70;99.90
15328;DHT22;7764;51.430;6.840;2024-03-02T12:11:41;13.80;99.90
15328;DHT22;7764;51.430;6.840;2024-03-02T12:14:13;13.80;99.90
15328;DHT22;7764;51.430;6.840;2024-03-02T12:16:47;13.90;99.90
15328;DHT22;7764;51.430;6.840;2024-03-02T12:19:17;13.90;99.90
15328;DHT22;7764;51.430;6.840;2024-03-02T12:21:46;13.90;99.90
15328;DHT22;7764;51.430;6.840;2024-03-02T12:24:14;14.00;99.90
15328;DHT22;7764;51.430;6.840;2024-03-02T12:26:55;14.00;99.90
15328;DHT22;7764;51.430;6.840;2024-03-02T12:29:31;14.10;99.90
15328;DHT22;7764;51.430;6.840;2024-03-02T12:32:02;14.00;99.90
15328;DHT22;7764;51.430;6.840;2024-03-02T12:34:37;14.00;99.90
15328;DHT22;7764;51.430;6.840;2024-03-02T12:37:18;14.10;99.90
15328;DHT22;7764;51.430;6.840;2024-03-02T12:39:56;14.10;99.90
15328;DHT22;7764;51.430;6.840;2024-03-02T12:42:26;14.10;99.90
15328;DHT22;7764;51.430;6.840;2024-03-02T12:44:53;14.10;99.90
15328;DHT22;7764;51.430;6.840;2024-03-02T12:47:21;14.10;99.90
15328;DHT22;7764;51.430;6.840;2024-03-02T12:49:49;14.10;99.90
15328;DHT22;7764;51.430;6.840;2024-03-02T12:52:20;14.20;99.90
15328;DHT22;7764;51.430;6.840;2024-03-02T12:54:51;14.20;99.90
15328;DHT22;7764;51.430;6.840;2024-03-02T12:57:29;14.20;99.90
15328;DHT22;7764;51.430;6.840;2024-03-02T13:00:02;14.20;99.90
15328;DHT22;7764;51.430;6.840;2024-03-02T13:02:38;14.20;99.90
15328;DHT22;7764;51.430;6.840;2024-03-02T13:05:09;14.20;99.90
15328;DHT22;7764;51.430;6.840;2024-03-02T13:07:37;14.20;99.90
15328;DHT22;7764;51.430;6.840;2024-03-02T13:10:04;14.30;99.90
15328;DHT22;7764;51.430;6.840;2024-03-02T13:12:34;14.40;99.90
15328;DHT22;7764;51.430;6.840;2024-03-02T13:15:03;14.30;99.90
15328;DHT22;7764;51.430;6.840;2024-03-02T13:17:31;14.30;99.90
15328;DHT22;7764;51.430;6.840;2024-03-02T13:19:59;14.30;99.90
15328;DHT22;7764;51.430;6.840;2024-03-02T13:22:31;14.30;99.90
15328;DHT22;7764;51.430;6.840;2024-03-02T13:24:59;14.30;99.90
15328;DHT22;7764;51.430;6.840;2024-03-02T13:27:29;14.30;99.90
15328;DHT22;7764;51.430;6.840;2024-03-02T13:29:58;14.40;99.90
15328;DHT22;7764;51.430;6.840;2024-03-02T13:32:29;14.50;99.90
15328;DHT22;7764;51.430;6.840;2024-03-02T13:34:56;14.60;99.90
15328;DHT22;7764;51.430;6.840;2024-03-02T13:37:24;14.50;99.90
15328;DHT22;7764;51.430;6.840;2024-03-02T13:39:57;14.50;99.90
15328;DHT22;7764;51.430;6.840;2024-03-02T13:42:31;14.50;99.90
15328;DHT22;7764;51.430;6.840;2024-03-02T13:45:00;14.40;99.90
15328;DHT22;7764;51.430;6.840;2024-03-02T13:47:27;14.40;99.90
15328;DHT22;7764;51.430;6.840;2024-03-02T13:49:54;14.50;99.90
15328;DHT22;7764;51.430;6.840;2024-03-02T13:52:21;14.50;99.90
15328;DHT22;7764;51.430;6.840;2024-03-02T13:54:49;14.60;99.90
15328;DHT22;7764;51.430;6.840;2024-03-02T13:57:18;14.60;99.90
15328;DHT22;7764;51.430;6.840;2024-03-02T13:59:45;14.50;99.90
15328;DHT22;7764;51.430;6.840;2024-03-02T14:02:15;14.50;99.90
15328;DHT22;7764;51.430;6.840;2024-03-02T14:04:42;14.60;99.90
15328;DHT22;7764;51.430;6.840;2024-03-02T14:07:08;14.60;99.90
15328;DHT22;7764;51.430;6.840;2024-03-02T14:09:36;14.60;99.90
15328;DHT22;7764;51.430;6.840;2024-03-02T14:12:04;14.60;99.90
15328;DHT22;7764;51.430;6.840;2024-03-02T14:14:32;14.60;99.90
15328;DHT22;7764;51.430;6.840;2024-03-02T14:16:59;14.60;99.90
15328;DHT22;7764;51.430;6.840;2024-03-02T14:19:31;14.70;99.90
15328;DHT22;7764;51.430;6.840;2024-03-02T14:21:58;14.60;99.90
15328;DHT22;7764;51.430;6.840;2024-03-02T14:24:25;14.60;99.90
15328;DHT22;7764;51.430;6.840;2024-03-02T14:26:53;14.60;99.90
15328;DHT22;7764;51.430;6.840;2024-03-02T14:29:20;14.60;99.90
15328;DHT22;7764;51.430;6.840;2024-03-02T14:31:47;14.60;99.90
15328;DHT22;7764;51.430;6.840;2024-03-02T14:34:14;14.70;99.90
15328;DHT22;7764;51.430;6.840;2024-03-02T14:36:42;14.70;99.90
15328;DHT22;7764;51.430;6.840;2024-03-02T14:39:09;14.70;99.90
15328;DHT22;7764;51.430;6.840;2024-03-02T14:41:38;14.70;99.90
15328;DHT22;7764;51.430;6.840;2024-03-02T14:44:05;14.70;99.90
15328;DHT22;7764;51.430;6.840;2024-03-02T14:46:32;14.70;99.90
15328;DHT22;7764;51.430;6.840;2024-03-02T14:48:59;14.70;99.90
15328;DHT22;7764;51.430;6.840;2024-03-02T14:51:26;14.60;99.90
15328;DHT22;7764;51.430;6.840;2024-03-02T14:53:57;14.60;99.90
15328;DHT22;7764;51.430;6.840;2024-03-02T14:56:24;14.60;99.90
15328;DHT22;7764;51.430;6.840;2024-03-02T14:58:51;14.60;99.90
15328;DHT22;7764;51.430;6.840;2024-03-02T15:01:20;14.60;99.90
15328;DHT22;7764;51.430;6.840;2024-03-02T15:03:48;14.60;99.90
15328;DHT22;7764;51.430;6.840;2024-03-02T15:06:15;14.60;99.90
15328;DHT22;7764;51.430;6.840;2024-03-02T15:08:42;14.60;99.90
15328;DHT22;7764;51.430;6.840;2024-03-02T15:11:13;14.60;99.90
15328;DHT22;7764;51.430;6.840;2024-03-02T15:13:40;14.60;99.90
15328;DHT22;7764;51.430;6.840;2024-03-02T15:16:09;14.70;99.90
15328;DHT22;7764;51.430;6.840;2024-03-02T15:18:36;14.70;99.90
15328;DHT22;7764;51.430;6.840;2024-03-02T15:21:03;14.90;99.90
15328;DHT22;7764;51.430;6.840;2024-03-02T15:23:31;14.90;99.90
15328;DHT22;7764;51.430;6.840;2024-03-02T15:25:58;14.90;99.90
15328;DHT22;7764;51.430;6.840;2024-03-02T15:28:27;15.00;99.90
15328;DHT22;7764;51.430;6.840;2024-03-02T15:30:53;15.00;99.90
15328;DHT22;7764;51.430;6.840;2024-03-02T15:33:21;15.00;99.90
15328;DHT22;7764;51.430;6.840;2024-03-02T15:35:50;15.00;99.90
15328;DHT22;7764;51.430;6.840;2024-03-02T15:38:17;14.90;99.90
15328;DHT22;7764;51.430;6.840;2024-03-02T15:40:44;14.90;99.90
15328;DHT22;7764;51.430;6.840;2024-03-02T15:43:11;14.80;99.90
15328;DHT22;7764;51.430;6.840;2024-03-02T15:45:39;14.80;99.90
15328;DHT22;7764;51.430;6.840;2024-03-02T15:48:06;14.80;99.90
15328;DHT22;7764;51.430;6.840;2024-03-02T15:50:33;14.70;99.90
15328;DHT22;7764;51.430;6.840;2024-03-02T15:53:02;14.70;99.90
15328;DHT22;7764;51.430;6.840;2024-03-02T15:55:32;14.60;99.90
15328;DHT22;7764;51.430;6.840;2024-03-02T15:57:59;14.70;99.90
15328;DHT22;7764;51.430;6.840;2024-03-02T16:00:29;14.60;99.90